sensor_id;sensor_type;location;lat;lon;timestamp;temperature;humidity
26655;DHT22;14278;50.784;4.630;2022-10-16T00:02:06;14.80;99.90
26655;DHT22;14278;50.784;4.630;2022-10-16T00:04:32;14.80;99.90
26655;DHT22;14278;50.784;4.630;2022-10-16T00:06:58;14.90;99.90
26655;DHT22;14278;50.784;4.630;2022-10-16T00:09:25;15.00;99.90
26655;DHT22;14278;50.784;4.630;2022-10-16T00:11:50;15.00;99.90
26655;DHT22;14278;50.784;4.630;2022-10-16T00:14:16;15.00;99.90
26655;DHT22;14278;50.784;4.630;2022-10-16T00:16:42;14.80;99.90
26655;DHT22;14278;50.784;4.630;2022-10-16T00:19:10;14.80;99.90
26655;DHT22;14278;50.784;4.630;2022-10-16T00:21:37;14.90;99.90
26655;DHT22;14278;50.784;4.630;2022-10-16T00:24:07;14.90;99.90
26655;DHT22;14278;50.784;4.630;2022-10-16T00:26:35;14.80;99.90
26655;DHT22;14278;50.784;4.630;2022-10-16T00:29:02;14.80;99.90
26655;DHT22;14278;50.784;4.630;2022-10-16T00:31:28;14.90;99.90
26655;DHT22;14278;50.784;4.630;2022-10-16T00:33:55;15.00;99.90
26655;DHT22;14278;50.784;4.630;2022-10-16T00:36:23;15.00;99.90
26655;DHT22;14278;50.784;4.630;2022-10-16T00:38:53;14.90;99.90
26655;DHT22;14278;50.784;4.630;2022-10-16T00:41:21;14.80;99.90
26655;DHT22;14278;50.784;4.630;2022-10-16T00:43:56;14.80;99.90
26655;DHT22;14278;50.784;4.630;2022-10-16T00:46:29;14.90;99.90
26655;DHT22;14278;50.784;4.630;2022-10-16T00:49:04;14.80;99.90
26655;DHT22;14278;50.784;4.630;2022-10-16T00:51:39;14.70;99.90
26655;DHT22;14278;50.784;4.630;2022-10-16T00:54:21;14.80;99.90
26655;DHT22;14278;50.784;4.630;2022-10-16T00:56:49;14.70;99.90
26655;DHT22;14278;50.784;4.630;2022-10-16T00:59:19;14.80;99.90
26655;DHT22;14278;50.784;4.630;2022-10-16T01:01:46;14.70;99.90
26655;DHT22;14278;50.784;4.630;2022-10-16T01:04:11;14.60;99.90
26655;DHT22;14278;50.784;4.630;2022-10-16T01:17:48;14.60;99.90
26655;DHT22;14278;50.784;4.630;2022-10-16T01:20:37;14.60;99.90
26655;DHT22;14278;50.784;4.630;2022-10-16T01:26:16;14.70;99.90
26655;DHT22;14278;50.784;4.630;2022-10-16T01:28:56;14.50;99.90
26655;DHT22;14278;50.784;4.630;2022-10-16T01:31:26;14.60;99.90
26655;DHT22;14278;50.784;4.630;2022-10-16T01:34:16;14.60;99.90
26655;DHT22;14278;50.784;4.630;2022-10-16T01:36:53;14.60;99.90
26655;DHT22;14278;50.784;4.630;2022-10-16T01:39:24;14.50;99.90
26655;DHT22;14278;50.784;4.630;2022-10-16T01:42:12;14.60;99.90
26655;DHT22;14278;50.784;4.630;2022-10-16T01:44:38;14.60;99.90
26655;DHT22;14278;50.784;4.630;2022-10-16T01:47:06;14.70;99.90
26655;DHT22;14278;50.784;4.630;2022-10-16T01:49:35;14.60;99.90
26655;DHT22;14278;50.784;4.630;2022-10-16T01:52:06;14.40;99.90
26655;DHT22;14278;50.784;4.630;2022-10-16T01:54:35;14.50;99.90
26655;DHT22;14278;50.784;4.630;2022-10-16T01:57:04;14.50;99.90
26655;DHT22;14278;50.784;4.630;2022-10-16T01:59:35;14.60;99.90
26655;DHT22;14278;50.784;4.630;2022-10-16T02:02:07;14.50;99.90
26655;DHT22;14278;50.784;4.630;2022-10-16T02:04:38;14.50;99.90
26655;DHT22;14278;50.784;4.630;2022-10-16T02:07:05;14.40;99.90
26655;DHT22;14278;50.784;4.630;2022-10-16T02:09:35;14.50;99.90
26655;DHT22;14278;50.784;4.630;2022-10-16T02:12:08;14.30;99.90
26655;DHT22;14278;50.784;4.630;2022-10-16T02:14:38;14.40;99.90
26655;DHT22;14278;50.784;4.630;2022-10-16T02:17:15;14.50;99.90
26655;DHT22;14278;50.784;4.630;2022-10-16T02:19:42;14.50;99.90
26655;DHT22;14278;50.784;4.630;2022-10-16T02:22:36;14.60;99.90
26655;DHT22;14278;50.784;4.630;2022-10-16T02:25:06;14.60;99.90
26655;DHT22;14278;50.784;4.630;2022-10-16T02:27:54;14.70;99.90
26655;DHT22;14278;50.784;4.630;2022-10-16T02:30:25;14.70;99.90
26655;DHT22;14278;50.784;4.630;2022-10-16T02:32:53;14.50;99.90
26655;DHT22;14278;50.784;4.630;2022-10-16T02:35:20;14.40;99.90
26655;DHT22;14278;50.784;4.630;2022-10-16T02:37:49;14.40;99.90
26655;DHT22;14278;50.784;4.630;2022-10-16T02:40:17;14.40;99.90
26655;DHT22;14278;50.784;4.630;2022-10-16T02:42:43;14.40;99.90
26655;DHT22;14278;50.784;4.630;2022-10-16T02:45:10;14.60;99.90
26655;DHT22;14278;50.784;4.630;2022-10-16T02:47:36;14.60;99.90
26655;DHT22;14278;50.784;4.630;2022-10-16T02:50:03;14.50;99.90
26655;DHT22;14278;50.784;4.630;2022-10-16T02:52:29;14.50;99.90
26655;DHT22;14278;50.784;4.630;2022-10-16T02:54:55;14.50;99.90
26655;DHT22;14278;50.784;4.630;2022-10-16T02:57:21;14.60;99.90
26655;DHT22;14278;50.784;4.630;2022-10-16T02:59:46;14.40;99.90
26655;DHT22;14278;50.784;4.630;2022-10-16T03:02:13;14.30;99.90
26655;DHT22;14278;50.784;4.630;2022-10-16T03:04:39;14.30;99.90
26655;DHT22;14278;50.784;4.630;2022-10-16T03:07:04;14.40;99.90
26655;DHT22;14278;50.784;4.630;2022-10-16T03:09:30;14.40;99.90
26655;DHT22;14278;50.784;4.630;2022-10-16T03:11:56;14.60;99.90
26655;DHT22;14278;50.784;4.630;2022-10-16T03:14:22;14.40;99.90
26655;DHT22;14278;50.784;4.630;2022-10-16T03:16:48;14.50;99.90
26655;DHT22;14278;50.784;4.630;2022-10-16T03:19:15;14.70;99.90
26655;DHT22;14278;50.784;4.630;2022-10-16T03:21:41;14.50;99.90
26655;DHT22;14278;50.784;4.630;2022-10-16T03:24:06;14.60;99.90
26655;DHT22;14278;50.784;4.630;2022-10-16T03:26:33;14.50;99.90
26655;DHT22;14278;50.784;4.630;2022-10-16T03:28:58;14.60;99.90
26655;DHT22;14278;50.784;4.630;2022-10-16T03:31:24;14.60;99.90
26655;DHT22;14278;50.784;4.630;2022-10-16T03:33:50;14.50;99.90
26655;DHT22;14278;50.784;4.630;2022-10-16T03:36:16;14.50;99.90
26655;DHT22;14278;50.784;4.630;2022-10-16T03:38:42;14.40;99.90
26655;DHT22;14278;50.784;4.630;2022-10-16T03:41:08;14.50;99.90
26655;DHT22;14278;50.784;4.630;2022-10-16T03:43:34;14.40;99.90
26655;DHT22;14278;50.784;4.630;2022-10-16T03:45:59;14.40;99.90
26655;DHT22;14278;50.784;4.630;2022-10-16T03:48:25;14.30;99.90
26655;DHT22;14278;50.784;4.630;2022-10-16T03:50:51;14.50;99.90
26655;DHT22;14278;50.784;4.630;2022-10-16T03:53:17;14.50;99.90
26655;DHT22;14278;50.784;4.630;2022-10-16T03:55:44;14.30;99.90
26655;DHT22;14278;50.784;4.630;2022-10-16T03:58:10;14.40;99.90
26655;DHT22;14278;50.784;4.630;2022-10-16T04:00:39;14.30;99.90
26655;DHT22;14278;50.784;4.630;2022-10-16T04:03:06;14.30;99.90
26655;DHT22;14278;50.784;4.630;2022-10-16T04:05:32;14.40;99.90
26655;DHT22;14278;50.784;4.630;2022-10-16T04:07:57;14.50;99.90
26655;DHT22;14278;50.784;4.630;2022-10-16T04:10:23;14.50;99.90
26655;DHT22;14278;50.784;4.630;2022-10-16T04:12:49;14.50;99.90
26655;DHT22;14278;50.784;4.630;2022-10-16T04:15:15;14.50;99.90
26655;DHT22;14278;50.784;4.630;2022-10-16T04:17:41;14.50;99.90
26655;DHT22;14278;50.784;4.630;2022-10-16T04:20:07;14.50;99.90
26655;DHT22;14278;50.784;4.630;2022-10-16T04:22:33;14.50;99.90
26655;DHT22;14278;50.784;4.630;2022-10-16T04:24:58;14.50;99.90
26655;DHT22;14278;50.784;4.630;2022-10-16T04:27:25;14.30;99.90
26655;DHT22;14278;50.784;4.630;2022-10-16T04:29:50;14.30;99.90
26655;DHT22;14278;50.784;4.630;2022-10-16T04:32:16;14.50;99.90
26655;DHT22;14278;50.784;4.630;2022-10-16T04:34:42;14.40;99.90
26655;DHT22;14278;50.784;4.630;2022-10-16T04:37:08;14.50;99.90
26655;DHT22;14278;50.784;4.630;2022-10-16T04:39:34;14.60;99.90
26655;DHT22;14278;50.784;4.630;2022-10-16T04:42:00;14.50;99.90
26655;DHT22;14278;50.784;4.630;2022-10-16T04:44:26;14.50;99.90
26655;DHT22;14278;50.784;4.630;2022-10-16T04:46:51;14.40;99.90
26655;DHT22;14278;50.784;4.630;2022-10-16T04:49:17;14.30;99.90
26655;DHT22;14278;50.784;4.630;2022-10-16T04:51:43;14.30;99.90
26655;DHT22;14278;50.784;4.630;2022-10-16T04:54:09;14.40;99.90
26655;DHT22;14278;50.784;4.630;2022-10-16T04:56:35;14.50;99.90
26655;DHT22;14278;50.784;4.630;2022-10-16T04:59:09;14.50;99.90
26655;DHT22;14278;50.784;4.630;2022-10-16T05:01:35;14.50;99.90
26655;DHT22;14278;50.784;4.630;2022-10-16T05:04:01;14.30;99.90
26655;DHT22;14278;50.784;4.630;2022-10-16T05:06:27;14.10;99.90
26655;DHT22;14278;50.784;4.630;2022-10-16T05:08:53;14.30;99.90
26655;DHT22;14278;50.784;4.630;2022-10-16T05:11:18;14.20;99.90
26655;DHT22;14278;50.784;4.630;2022-10-16T05:13:44;14.30;99.90
26655;DHT22;14278;50.784;4.630;2022-10-16T05:16:10;14.40;99.90
26655;DHT22;14278;50.784;4.630;2022-10-16T05:18:36;14.30;99.90
26655;DHT22;14278;50.784;4.630;2022-10-16T05:21:02;14.30;99.90
26655;DHT22;14278;50.784;4.630;2022-10-16T05:23:28;14.30;99.90
26655;DHT22;14278;50.784;4.630;2022-10-16T05:25:57;14.30;99.90
26655;DHT22;14278;50.784;4.630;2022-10-16T05:28:28;14.20;99.90
26655;DHT22;14278;50.784;4.630;2022-10-16T05:30:54;14.30;99.90
26655;DHT22;14278;50.784;4.630;2022-10-16T05:33:21;14.20;99.90
26655;DHT22;14278;50.784;4.630;2022-10-16T05:35:47;14.20;99.90
26655;DHT22;14278;50.784;4.630;2022-10-16T05:38:12;14.20;99.90
26655;DHT22;14278;50.784;4.630;2022-10-16T05:40:39;14.10;99.90
26655;DHT22;14278;50.784;4.630;2022-10-16T05:43:05;14.20;99.90
26655;DHT22;14278;50.784;4.630;2022-10-16T05:45:30;14.40;99.90
26655;DHT22;14278;50.784;4.630;2022-10-16T05:47:56;14.30;99.90
26655;DHT22;14278;50.784;4.630;2022-10-16T05:50:22;14.30;99.90
26655;DHT22;14278;50.784;4.630;2022-10-16T05:52:48;14.30;99.90
26655;DHT22;14278;50.784;4.630;2022-10-16T05:55:14;14.20;99.90
26655;DHT22;14278;50.784;4.630;2022-10-16T05:57:40;14.10;99.90
26655;DHT22;14278;50.784;4.630;2022-10-16T06:00:06;14.20;99.90
26655;DHT22;14278;50.784;4.630;2022-10-16T06:02:32;14.10;99.90
26655;DHT22;14278;50.784;4.630;2022-10-16T06:04:58;14.10;99.90
26655;DHT22;14278;50.784;4.630;2022-10-16T06:07:24;14.10;99.90
26655;DHT22;14278;50.784;4.630;2022-10-16T06:09:50;14.10;99.90
26655;DHT22;14278;50.784;4.630;2022-10-16T06:12:17;14.10;99.90
26655;DHT22;14278;50.784;4.630;2022-10-16T06:14:42;14.20;99.90
26655;DHT22;14278;50.784;4.630;2022-10-16T06:17:09;14.30;99.90
26655;DHT22;14278;50.784;4.630;2022-10-16T06:19:34;14.20;99.90
26655;DHT22;14278;50.784;4.630;2022-10-16T06:22:00;14.30;99.90
26655;DHT22;14278;50.784;4.630;2022-10-16T06:24:28;14.20;99.90
26655;DHT22;14278;50.784;4.630;2022-10-16T06:26:53;14.10;99.90
26655;DHT22;14278;50.784;4.630;2022-10-16T06:29:20;14.00;99.90
26655;DHT22;14278;50.784;4.630;2022-10-16T06:31:45;14.00;99.90
26655;DHT22;14278;50.784;4.630;2022-10-16T06:34:11;14.00;99.90
26655;DHT22;14278;50.784;4.630;2022-10-16T06:36:38;14.00;99.90
26655;DHT22;14278;50.784;4.630;2022-10-16T06:39:04;13.90;99.90
26655;DHT22;14278;50.784;4.630;2022-10-16T06:41:33;14.00;99.90
26655;DHT22;14278;50.784;4.630;2022-10-16T06:43:59;14.20;99.90
26655;DHT22;14278;50.784;4.630;2022-10-16T06:46:26;14.20;99.90
26655;DHT22;14278;50.784;4.630;2022-10-16T06:48:52;14.30;99.90
26655;DHT22;14278;50.784;4.630;2022-10-16T06:51:22;14.40;99.90
26655;DHT22;14278;50.784;4.630;2022-10-16T06:53:52;14.40;99.90
26655;DHT22;14278;50.784;4.630;2022-10-16T06:56:20;14.30;99.90
26655;DHT22;14278;50.784;4.630;2022-10-16T06:58:47;14.20;99.90
26655;DHT22;14278;50.784;4.630;2022-10-16T07:01:14;14.30;99.90
26655;DHT22;14278;50.784;4.630;2022-10-16T07:03:41;14.40;99.90
26655;DHT22;14278;50.784;4.630;2022-10-16T07:06:09;14.50;99.90
26655;DHT22;14278;50.784;4.630;2022-10-16T07:08:39;14.40;99.90
26655;DHT22;14278;50.784;4.630;2022-10-16T07:11:08;14.40;99.90
26655;DHT22;14278;50.784;4.630;2022-10-16T07:13:35;14.40;99.90
26655;DHT22;14278;50.784;4.630;2022-10-16T07:16:06;14.50;99.90
26655;DHT22;14278;50.784;4.630;2022-10-16T07:18:32;14.60;99.90
26655;DHT22;14278;50.784;4.630;2022-10-16T07:21:18;14.60;99.90
26655;DHT22;14278;50.784;4.630;2022-10-16T07:23:49;14.50;99.90
26655;DHT22;14278;50.784;4.630;2022-10-16T07:26:15;14.70;99.90
26655;DHT22;14278;50.784;4.630;2022-10-16T07:28:42;14.80;99.90
26655;DHT22;14278;50.784;4.630;2022-10-16T07:31:11;14.80;99.90
26655;DHT22;14278;50.784;4.630;2022-10-16T07:33:39;15.00;99.90
26655;DHT22;14278;50.784;4.630;2022-10-16T07:36:07;15.00;99.90
26655;DHT22;14278;50.784;4.630;2022-10-16T07:38:33;15.10;99.90
26655;DHT22;14278;50.784;4.630;2022-10-16T07:41:01;15.30;99.90
26655;DHT22;14278;50.784;4.630;2022-10-16T07:43:27;15.10;99.90
26655;DHT22;14278;50.784;4.630;2022-10-16T07:45:54;15.10;99.90
26655;DHT22;14278;50.784;4.630;2022-10-16T07:48:21;15.30;99.90
26655;DHT22;14278;50.784;4.630;2022-10-16T07:50:47;15.40;99.90
26655;DHT22;14278;50.784;4.630;2022-10-16T07:53:13;15.50;99.90
26655;DHT22;14278;50.784;4.630;2022-10-16T07:55:39;15.40;99.90
26655;DHT22;14278;50.784;4.630;2022-10-16T07:58:05;15.30;99.90
26655;DHT22;14278;50.784;4.630;2022-10-16T08:00:32;15.40;99.90
26655;DHT22;14278;50.784;4.630;2022-10-16T08:02:58;15.40;99.90
26655;DHT22;14278;50.784;4.630;2022-10-16T08:05:31;15.40;99.90
26655;DHT22;14278;50.784;4.630;2022-10-16T08:07:58;15.20;99.90
26655;DHT22;14278;50.784;4.630;2022-10-16T08:10:26;15.30;99.90
26655;DHT22;14278;50.784;4.630;2022-10-16T08:12:53;15.50;99.90
26655;DHT22;14278;50.784;4.630;2022-10-16T08:15:19;15.40;99.90
26655;DHT22;14278;50.784;4.630;2022-10-16T08:17:55;15.30;99.90
26655;DHT22;14278;50.784;4.630;2022-10-16T08:20:21;15.40;99.90
26655;DHT22;14278;50.784;4.630;2022-10-16T08:22:47;15.80;99.90
26655;DHT22;14278;50.784;4.630;2022-10-16T08:25:13;15.70;99.90
26655;DHT22;14278;50.784;4.630;2022-10-16T08:27:38;15.70;99.90
26655;DHT22;14278;50.784;4.630;2022-10-16T08:30:04;15.60;99.90
26655;DHT22;14278;50.784;4.630;2022-10-16T08:32:31;15.80;99.90
26655;DHT22;14278;50.784;4.630;2022-10-16T08:34:57;15.80;99.90
26655;DHT22;14278;50.784;4.630;2022-10-16T08:37:23;16.00;99.90
26655;DHT22;14278;50.784;4.630;2022-10-16T08:39:48;16.00;99.90
26655;DHT22;14278;50.784;4.630;2022-10-16T08:50:32;16.40;99.90
26655;DHT22;14278;50.784;4.630;2022-10-16T08:53:03;16.30;99.90
26655;DHT22;14278;50.784;4.630;2022-10-16T08:55:52;16.20;99.90
26655;DHT22;14278;50.784;4.630;2022-10-16T08:58:23;16.10;99.90
26655;DHT22;14278;50.784;4.630;2022-10-16T09:01:13;16.30;99.90
26655;DHT22;14278;50.784;4.630;2022-10-16T09:22:42;16.90;99.90
26655;DHT22;14278;50.784;4.630;2022-10-16T09:25:14;16.60;99.90
26655;DHT22;14278;50.784;4.630;2022-10-16T09:27:40;16.60;99.90
26655;DHT22;14278;50.784;4.630;2022-10-16T09:30:16;16.50;99.90
26655;DHT22;14278;50.784;4.630;2022-10-16T09:32:43;16.60;99.90
26655;DHT22;14278;50.784;4.630;2022-10-16T09:37:58;16.90;99.90
26655;DHT22;14278;50.784;4.630;2022-10-16T09:40:42;16.80;99.90
26655;DHT22;14278;50.784;4.630;2022-10-16T09:46:03;16.60;99.90
26655;DHT22;14278;50.784;4.630;2022-10-16T09:48:39;16.60;99.90
26655;DHT22;14278;50.784;4.630;2022-10-16T09:51:28;16.70;99.90
26655;DHT22;14278;50.784;4.630;2022-10-16T09:54:12;17.10;99.90
26655;DHT22;14278;50.784;4.630;2022-10-16T09:56:38;17.10;99.90
26655;DHT22;14278;50.784;4.630;2022-10-16T09:59:15;17.20;99.90
26655;DHT22;14278;50.784;4.630;2022-10-16T10:01:50;17.10;99.90
26655;DHT22;14278;50.784;4.630;2022-10-16T10:04:17;17.40;99.90
26655;DHT22;14278;50.784;4.630;2022-10-16T10:06:46;17.20;99.90
26655;DHT22;14278;50.784;4.630;2022-10-16T10:09:25;17.30;99.90
26655;DHT22;14278;50.784;4.630;2022-10-16T10:19:50;17.50;99.90
26655;DHT22;14278;50.784;4.630;2022-10-16T10:27:45;17.70;99.90
26655;DHT22;14278;50.784;4.630;2022-10-16T10:30:42;18.00;99.90
26655;DHT22;14278;50.784;4.630;2022-10-16T10:36:26;18.00;99.90
26655;DHT22;14278;50.784;4.630;2022-10-16T10:57:58;19.20;99.90
26655;DHT22;14278;50.784;4.630;2022-10-16T11:08:52;21.30;99.90
26655;DHT22;14278;50.784;4.630;2022-10-16T11:11:41;21.30;99.90
26655;DHT22;14278;50.784;4.630;2022-10-16T11:14:21;21.70;99.90
26655;DHT22;14278;50.784;4.630;2022-10-16T11:16:53;22.20;99.90
26655;DHT22;14278;50.784;4.630;2022-10-16T11:19:35;22.80;99.90
26655;DHT22;14278;50.784;4.630;2022-10-16T11:27:44;22.60;99.90
26655;DHT22;14278;50.784;4.630;2022-10-16T11:35:24;22.30;99.90
26655;DHT22;14278;50.784;4.630;2022-10-16T11:37:52;23.00;99.90
26655;DHT22;14278;50.784;4.630;2022-10-16T11:40:28;23.80;99.90
26655;DHT22;14278;50.784;4.630;2022-10-16T11:43:07;24.50;99.90
26655;DHT22;14278;50.784;4.630;2022-10-16T11:46:01;23.80;99.90
26655;DHT22;14278;50.784;4.630;2022-10-16T11:48:36;23.50;99.90
26655;DHT22;14278;50.784;4.630;2022-10-16T11:56:32;22.90;99.90
26655;DHT22;14278;50.784;4.630;2022-10-16T12:04:38;22.50;99.90
26655;DHT22;14278;50.784;4.630;2022-10-16T12:07:14;22.30;99.90
26655;DHT22;14278;50.784;4.630;2022-10-16T12:09:41;22.70;99.90
26655;DHT22;14278;50.784;4.630;2022-10-16T12:12:37;22.80;99.90
26655;DHT22;14278;50.784;4.630;2022-10-16T12:15:24;22.80;99.90
26655;DHT22;14278;50.784;4.630;2022-10-16T12:17:51;22.80;99.90
26655;DHT22;14278;50.784;4.630;2022-10-16T12:22:56;22.90;99.90
26655;DHT22;14278;50.784;4.630;2022-10-16T12:28:06;22.50;99.90
26655;DHT22;14278;50.784;4.630;2022-10-16T12:30:42;22.40;99.90
26655;DHT22;14278;50.784;4.630;2022-10-16T12:33:37;22.20;99.90
26655;DHT22;14278;50.784;4.630;2022-10-16T12:36:14;21.60;99.90
26655;DHT22;14278;50.784;4.630;2022-10-16T12:38:49;21.60;99.90
26655;DHT22;14278;50.784;4.630;2022-10-16T12:43:50;21.80;99.90
26655;DHT22;14278;50.784;4.630;2022-10-16T12:48:44;21.60;99.90
26655;DHT22;14278;50.784;4.630;2022-10-16T12:51:33;21.50;99.90
26655;DHT22;14278;50.784;4.630;2022-10-16T12:56:50;21.10;99.90
26655;DHT22;14278;50.784;4.630;2022-10-16T13:02:24;20.70;99.90
26655;DHT22;14278;50.784;4.630;2022-10-16T13:16:27;21.40;99.90
26655;DHT22;14278;50.784;4.630;2022-10-16T13:22:03;21.20;99.90
26655;DHT22;14278;50.784;4.630;2022-10-16T13:27:50;21.00;99.90
26655;DHT22;14278;50.784;4.630;2022-10-16T13:32:55;20.80;99.90
26655;DHT22;14278;50.784;4.630;2022-10-16T13:35:26;20.90;99.90
26655;DHT22;14278;50.784;4.630;2022-10-16T13:38:22;20.90;99.90
26655;DHT22;14278;50.784;4.630;2022-10-16T13:46:13;21.90;99.90
26655;DHT22;14278;50.784;4.630;2022-10-16T13:48:40;22.10;99.90
26655;DHT22;14278;50.784;4.630;2022-10-16T13:51:18;21.90;99.90
26655;DHT22;14278;50.784;4.630;2022-10-16T13:53:45;21.70;99.90
26655;DHT22;14278;50.784;4.630;2022-10-16T13:56:14;21.40;99.90
26655;DHT22;14278;50.784;4.630;2022-10-16T13:58:41;21.00;99.90
26655;DHT22;14278;50.784;4.630;2022-10-16T14:03:45;20.40;99.90
26655;DHT22;14278;50.784;4.630;2022-10-16T14:06:17;20.30;99.90
26655;DHT22;14278;50.784;4.630;2022-10-16T14:08:46;20.60;99.90
26655;DHT22;14278;50.784;4.630;2022-10-16T14:11:21;20.80;99.90
26655;DHT22;14278;50.784;4.630;2022-10-16T14:13:50;20.90;99.90
26655;DHT22;14278;50.784;4.630;2022-10-16T14:16:21;20.90;99.90
26655;DHT22;14278;50.784;4.630;2022-10-16T14:18:56;20.90;99.90
26655;DHT22;14278;50.784;4.630;2022-10-16T14:21:22;20.90;99.90
26655;DHT22;14278;50.784;4.630;2022-10-16T14:23:48;20.90;99.90
26655;DHT22;14278;50.784;4.630;2022-10-16T14:26:17;20.90;99.90
26655;DHT22;14278;50.784;4.630;2022-10-16T14:28:46;21.00;99.90
26655;DHT22;14278;50.784;4.630;2022-10-16T14:31:28;21.00;99.90
26655;DHT22;14278;50.784;4.630;2022-10-16T14:33:54;21.00;99.90
26655;DHT22;14278;50.784;4.630;2022-10-16T14:36:20;21.00;99.90
26655;DHT22;14278;50.784;4.630;2022-10-16T14:39:03;20.80;99.90
26655;DHT22;14278;50.784;4.630;2022-10-16T14:41:31;20.80;99.90
26655;DHT22;14278;50.784;4.630;2022-10-16T14:44:03;20.90;99.90
26655;DHT22;14278;50.784;4.630;2022-10-16T14:46:36;21.10;99.90
26655;DHT22;14278;50.784;4.630;2022-10-16T14:51:39;21.00;99.90
26655;DHT22;14278;50.784;4.630;2022-10-16T14:54:10;21.10;99.90
26655;DHT22;14278;50.784;4.630;2022-10-16T14:56:48;21.10;99.90
26655;DHT22;14278;50.784;4.630;2022-10-16T14:59:36;21.20;99.90
26655;DHT22;14278;50.784;4.630;2022-10-16T15:02:28;20.90;99.90
26655;DHT22;14278;50.784;4.630;2022-10-16T15:04:54;20.80;99.90
26655;DHT22;14278;50.784;4.630;2022-10-16T15:07:20;20.80;99.90
26655;DHT22;14278;50.784;4.630;2022-10-16T15:09:46;20.80;99.90
26655;DHT22;14278;50.784;4.630;2022-10-16T15:12:12;20.70;99.90
26655;DHT22;14278;50.784;4.630;2022-10-16T15:14:38;20.50;99.90
26655;DHT22;14278;50.784;4.630;2022-10-16T15:17:03;20.10;99.90
26655;DHT22;14278;50.784;4.630;2022-10-16T15:19:30;19.90;99.90
26655;DHT22;14278;50.784;4.630;2022-10-16T15:21:56;19.90;99.90
26655;DHT22;14278;50.784;4.630;2022-10-16T15:24:22;19.90;99.90
26655;DHT22;14278;50.784;4.630;2022-10-16T15:26:48;19.80;99.90
26655;DHT22;14278;50.784;4.630;2022-10-16T15:29:16;19.60;99.90
26655;DHT22;14278;50.784;4.630;2022-10-16T15:31:42;19.70;99.90
26655;DHT22;14278;50.784;4.630;2022-10-16T15:34:12;19.70;99.90
26655;DHT22;14278;50.784;4.630;2022-10-16T15:36:38;19.50;99.90
26655;DHT22;14278;50.784;4.630;2022-10-16T15:39:10;19.50;99.90
26655;DHT22;14278;50.784;4.630;2022-10-16T15:41:37;19.40;99.90
26655;DHT22;14278;50.784;4.630;2022-10-16T15:44:03;19.40;99.90
26655;DHT22;14278;50.784;4.630;2022-10-16T15:46:29;19.50;99.90
26655;DHT22;14278;50.784;4.630;2022-10-16T15:48:58;19.30;99.90
26655;DHT22;14278;50.784;4.630;2022-10-16T15:51:24;19.20;99.90
26655;DHT22;14278;50.784;4.630;2022-10-16T15:53:50;19.10;99.90
26655;DHT22;14278;50.784;4.630;2022-10-16T15:56:17;18.80;99.90
26655;DHT22;14278;50.784;4.630;2022-10-16T15:58:43;18.70;99.90
26655;DHT22;14278;50.784;4.630;2022-10-16T16:01:10;18.60;99.90
26655;DHT22;14278;50.784;4.630;2022-10-16T16:03:37;18.70;99.90
26655;DHT22;14278;50.784;4.630;2022-10-16T16:06:10;18.70;99.90
26655;DHT22;14278;50.784;4.630;2022-10-16T16:08:36;18.70;99.90
26655;DHT22;14278;50.784;4.630;2022-10-16T16:11:10;18.80;99.90
26655;DHT22;14278;50.784;4.630;2022-10-16T16:13:37;18.50;99.90
26655;DHT22;14278;50.784;4.630;2022-10-16T16:16:08;18.60;99.90
26655;DHT22;14278;50.784;4.630;2022-10-16T16:18:35;18.10;99.90
26655;DHT22;14278;50.784;4.630;2022-10-16T16:21:01;17.80;99.90
26655;DHT22;14278;50.784;4.630;2022-10-16T16:23:27;17.70;99.90
26655;DHT22;14278;50.784;4.630;2022-10-16T16:26:13;17.90;99.90
26655;DHT22;14278;50.784;4.630;2022-10-16T16:28:41;18.00;99.90
26655;DHT22;14278;50.784;4.630;2022-10-16T16:31:07;18.00;99.90
26655;DHT22;14278;50.784;4.630;2022-10-16T16:33:33;18.20;99.90
26655;DHT22;14278;50.784;4.630;2022-10-16T16:36:02;18.20;99.90
26655;DHT22;14278;50.784;4.630;2022-10-16T16:38:29;18.30;99.90
26655;DHT22;14278;50.784;4.630;2022-10-16T16:40:55;18.30;99.90
26655;DHT22;14278;50.784;4.630;2022-10-16T16:43:26;18.30;99.90
26655;DHT22;14278;50.784;4.630;2022-10-16T16:45:53;18.00;99.90
26655;DHT22;14278;50.784;4.630;2022-10-16T16:48:22;18.10;99.90
26655;DHT22;14278;50.784;4.630;2022-10-16T16:50:48;17.90;99.90
26655;DHT22;14278;50.784;4.630;2022-10-16T16:53:14;17.80;99.90
26655;DHT22;14278;50.784;4.630;2022-10-16T16:55:40;17.80;99.90
26655;DHT22;14278;50.784;4.630;2022-10-16T16:58:05;17.90;99.90
26655;DHT22;14278;50.784;4.630;2022-10-16T17:00:31;17.80;99.90
26655;DHT22;14278;50.784;4.630;2022-10-16T17:02:58;17.50;99.90
26655;DHT22;14278;50.784;4.630;2022-10-16T17:05:23;17.60;99.90
26655;DHT22;14278;50.784;4.630;2022-10-16T17:07:49;17.20;99.90
26655;DHT22;14278;50.784;4.630;2022-10-16T17:10:15;17.20;99.90
26655;DHT22;14278;50.784;4.630;2022-10-16T17:12:41;17.10;99.90
26655;DHT22;14278;50.784;4.630;2022-10-16T17:15:07;17.00;99.90
26655;DHT22;14278;50.784;4.630;2022-10-16T17:17:33;17.20;99.90
26655;DHT22;14278;50.784;4.630;2022-10-16T17:19:59;17.30;99.90
26655;DHT22;14278;50.784;4.630;2022-10-16T17:22:25;17.10;99.90
26655;DHT22;14278;50.784;4.630;2022-10-16T17:24:51;17.30;99.90
26655;DHT22;14278;50.784;4.630;2022-10-16T17:27:19;17.20;99.90
26655;DHT22;14278;50.784;4.630;2022-10-16T17:29:45;17.20;99.90
26655;DHT22;14278;50.784;4.630;2022-10-16T17:32:10;17.20;99.90
26655;DHT22;14278;50.784;4.630;2022-10-16T17:34:36;17.20;99.90
26655;DHT22;14278;50.784;4.630;2022-10-16T17:37:03;17.70;99.90
26655;DHT22;14278;50.784;4.630;2022-10-16T17:39:29;17.60;99.90
26655;DHT22;14278;50.784;4.630;2022-10-16T17:41:54;17.20;99.90
26655;DHT22;14278;50.784;4.630;2022-10-16T17:44:20;17.30;99.90
26655;DHT22;14278;50.784;4.630;2022-10-16T17:46:48;17.60;99.90
26655;DHT22;14278;50.784;4.630;2022-10-16T17:49:16;17.80;99.90
26655;DHT22;14278;50.784;4.630;2022-10-16T17:51:42;17.60;99.90
26655;DHT22;14278;50.784;4.630;2022-10-16T17:54:09;17.30;99.90
26655;DHT22;14278;50.784;4.630;2022-10-16T17:56:36;17.30;99.90
26655;DHT22;14278;50.784;4.630;2022-10-16T17:59:02;17.30;99.90
26655;DHT22;14278;50.784;4.630;2022-10-16T18:01:30;17.20;99.90
26655;DHT22;14278;50.784;4.630;2022-10-16T18:04:05;17.20;99.90
26655;DHT22;14278;50.784;4.630;2022-10-16T18:06:32;17.30;99.90
26655;DHT22;14278;50.784;4.630;2022-10-16T18:08:59;17.70;99.90
26655;DHT22;14278;50.784;4.630;2022-10-16T18:11:25;17.60;99.90
26655;DHT22;14278;50.784;4.630;2022-10-16T18:13:53;17.60;99.90
26655;DHT22;14278;50.784;4.630;2022-10-16T18:16:18;17.50;99.90
26655;DHT22;14278;50.784;4.630;2022-10-16T18:18:44;17.60;99.90
26655;DHT22;14278;50.784;4.630;2022-10-16T18:21:12;17.50;99.90
26655;DHT22;14278;50.784;4.630;2022-10-16T18:23:39;17.60;99.90